Indianapolis, Indiana
Traffic Map
Current Weather Conditions
Indianapolis, Indiana
Few Clouds
Few Clouds
87°
Feels Like: 87°
Wind Chill: 87° Ceiling: Unl
Heat Index: 87° Visibility: 10mi
Dew Point: 61° Wind: 20mph
Humidity: 41% Direction: 270° (W)
Pressure: 29.98in Gusts: 26mph
Raw Report DataKIND 312054Z 27017G23KT 10SM FEW065 31/16 A2998 RMK AO2 SLP143 T03060161 56020
Traffic Incident Summary
Active as of:
Severity:
Category:
InformationThere was an issue retrieving the traffic information for this location. Please try a different location or try again shortly.
Advertisements
Track Severe Weather on mobile